Wiville, Arkansas
Current Conditions -  °F | °C
As of 1:56 AM on Friday 31 Oct 2014 (Local Time) from KM19 Reporting Station
Clear Clear  
Wind Chill: 50°   Ceiling: Unl
Heat Index: 50°   Visibility: 10mi
Dew Point: 46°   Wind: 8mph
Humidity: 86%   Direction: 320°NW
Pressure: 30.03"   Gusts: NA
Location:  35.2139°N, 91.1509°W
Report Text: KM19 310656Z AUTO 32007KT 10SM CLR 10/08 A3003 RMK AO2 T01000077 SLP167
Loading
Personal Weather Stations






























Interactive Weather Map
Tropical Storm Tracking
New forecast layout! Learn more

10-Day Weather Forecast

Advertisements
Track Severe Weather on mobile